createdAt,value
2016-09-29T00:01:32.913Z,0
2016-09-29T00:02:32.926Z,0
2016-09-29T00:03:32.948Z,0
2016-09-29T00:04:32.992Z,0
2016-09-29T00:05:33.011Z,0
2016-09-29T00:07:33.055Z,0
2016-09-29T00:08:48.008Z,0
2016-09-29T00:09:33.105Z,0
2016-09-29T00:10:33.429Z,0
2016-09-29T00:11:33.150Z,0
2016-09-29T00:12:33.198Z,0
2016-09-29T00:13:33.201Z,0
2016-09-29T00:14:33.229Z,0
2016-09-29T00:15:33.258Z,0
2016-09-29T00:16:33.278Z,0
2016-09-29T00:17:33.311Z,0
2016-09-29T00:18:33.332Z,0
2016-09-29T00:19:33.350Z,0
2016-09-29T00:20:33.382Z,0
2016-09-29T00:21:33.402Z,0
2016-09-29T00:22:48.358Z,0
2016-09-29T00:23:33.466Z,0
2016-09-29T00:24:33.475Z,0
2016-09-29T00:25:48.430Z,0
2016-09-29T00:26:33.534Z,0
2016-09-29T00:27:33.560Z,0
2016-09-29T00:28:33.584Z,0
2016-09-29T00:29:33.603Z,0
2016-09-29T00:30:33.677Z,0
2016-09-29T00:31:48.632Z,0
2016-09-29T00:32:33.677Z,0
2016-09-29T00:33:33.726Z,0
2016-09-29T00:34:33.726Z,0
2016-09-29T00:35:33.761Z,0
2016-09-29T00:36:33.783Z,0
2016-09-29T00:37:33.808Z,0
2016-09-29T00:38:33.837Z,0
2016-09-29T00:39:33.854Z,0
2016-09-29T00:40:33.891Z,0
2016-09-29T00:41:33.901Z,0
2016-09-29T00:42:48.911Z,0
2016-09-29T00:43:33.946Z,0
2016-09-29T00:44:33.976Z,0
2016-09-29T00:45:34.001Z,0
2016-09-29T00:46:34.032Z,0
2016-09-29T00:47:48.974Z,0
2016-09-29T00:48:34.072Z,0
2016-09-29T00:49:34.106Z,0
2016-09-29T00:51:34.352Z,0
2016-09-29T00:52:34.176Z,0
2016-09-29T00:53:34.449Z,0
2016-09-29T00:54:34.239Z,0
2016-09-29T00:55:34.248Z,0
2016-09-29T00:56:34.270Z,0
2016-09-29T00:57:34.299Z,0
2016-09-29T00:58:34.325Z,0
2016-09-29T00:59:49.276Z,0
2016-09-29T01:00:34.484Z,0
2016-09-29T01:01:49.323Z,0
2016-09-29T01:02:34.470Z,0
2016-09-29T01:04:34.477Z,0
2016-09-29T01:05:34.498Z,0
2016-09-29T01:06:34.522Z,0
2016-09-29T01:07:34.556Z,0
2016-09-29T01:08:34.575Z,0
2016-09-29T01:10:34.630Z,0
2016-09-29T01:11:34.651Z,0
2016-09-29T01:12:34.694Z,0
2016-09-29T01:13:34.701Z,0
2016-09-29T01:14:34.731Z,0
2016-09-29T01:15:34.747Z,0
2016-09-29T01:16:34.772Z,0
2016-09-29T01:17:34.808Z,0
2016-09-29T01:18:34.873Z,0
2016-09-29T01:19:49.771Z,0
2016-09-29T01:20:34.881Z,0
2016-09-29T01:21:34.894Z,0
2016-09-29T01:22:34.931Z,0
2016-09-29T01:23:34.955Z,0
2016-09-29T01:25:34.999Z,0
2016-09-29T01:26:35.328Z,0
2016-09-29T01:27:35.056Z,0
2016-09-29T01:28:35.071Z,0
2016-09-29T01:29:35.100Z,0
2016-09-29T01:30:35.127Z,0
2016-09-29T01:32:35.170Z,0
2016-09-29T01:33:35.202Z,0
2016-09-29T01:34:50.147Z,0
2016-09-29T01:35:35.247Z,0
2016-09-29T01:36:35.273Z,0
2016-09-29T01:37:35.312Z,0
2016-09-29T01:38:35.320Z,0
2016-09-29T01:39:35.356Z,0
2016-09-29T01:40:35.365Z,0
2016-09-29T01:41:35.401Z,0
2016-09-29T01:44:50.399Z,0
2016-09-29T01:45:35.493Z,0
2016-09-29T01:46:35.513Z,0
2016-09-29T01:47:35.542Z,0
2016-09-29T01:48:35.572Z,0
2016-09-29T01:49:35.596Z,0
2016-09-29T01:50:35.624Z,0
2016-09-29T01:51:35.643Z,0
2016-09-29T01:52:35.675Z,0
2016-09-29T01:53:35.695Z,0
2016-09-29T01:54:35.721Z,0
2016-09-29T01:55:35.750Z,0
2016-09-29T01:56:36.026Z,0
2016-09-29T01:57:35.900Z,0
2016-09-29T01:59:35.836Z,0
2016-09-29T02:00:35.876Z,0
2016-09-29T02:01:35.890Z,0
2016-09-29T02:02:50.840Z,0
2016-09-29T02:03:35.949Z,0
2016-09-29T02:04:35.965Z,0
2016-09-29T02:05:36.289Z,0
2016-09-29T02:07:36.033Z,0
2016-09-29T02:08:36.072Z,0
2016-09-29T02:09:36.098Z,0
2016-09-29T02:10:51.048Z,0
2016-09-29T02:11:36.142Z,0
2016-09-29T02:13:36.184Z,0
2016-09-29T02:14:36.208Z,0
2016-09-29T02:15:36.242Z,0
2016-09-29T02:16:36.265Z,0
2016-09-29T02:17:36.593Z,0
2016-09-29T02:18:36.615Z,0
2016-09-29T02:19:51.262Z,0
2016-09-29T02:20:36.362Z,0
2016-09-29T02:21:36.387Z,0
2016-09-29T02:22:51.336Z,0
2016-09-29T02:24:36.461Z,0
2016-09-29T02:25:36.480Z,0
2016-09-29T02:26:36.562Z,0
2016-09-29T02:27:36.534Z,0
2016-09-29T02:28:36.562Z,0
2016-09-29T02:29:36.585Z,0
2016-09-29T02:30:36.915Z,0
2016-09-29T02:31:36.637Z,0
2016-09-29T02:32:36.653Z,0
2016-09-29T02:33:36.678Z,0
2016-09-29T02:34:36.717Z,0
2016-09-29T02:36:37.002Z,0
2016-09-29T02:37:36.785Z,0
2016-09-29T02:38:51.729Z,0
2016-09-29T02:39:36.829Z,0
2016-09-29T02:40:52.079Z,0
2016-09-29T02:41:36.878Z,0
2016-09-29T02:42:36.911Z,0
2016-09-29T02:43:36.942Z,0
2016-09-29T02:44:36.958Z,0
2016-09-29T02:46:37.004Z,0
2016-09-29T02:47:37.029Z,0
2016-09-29T02:48:37.056Z,0
2016-09-29T02:49:37.080Z,0
2016-09-29T02:50:37.102Z,0
2016-09-29T02:51:37.127Z,0
2016-09-29T02:52:52.091Z,0
2016-09-29T02:53:37.184Z,0
2016-09-29T02:54:52.135Z,0
2016-09-29T02:55:37.226Z,0
2016-09-29T02:57:37.267Z,0
2016-09-29T02:58:37.299Z,0
2016-09-29T02:59:37.328Z,0
2016-09-29T03:00:37.358Z,0
2016-09-29T03:01:37.376Z,0
2016-09-29T03:02:37.404Z,0
2016-09-29T03:03:37.423Z,0
2016-09-29T03:04:37.454Z,0
2016-09-29T03:05:37.775Z,0
2016-09-29T03:06:52.422Z,0
2016-09-29T03:07:37.531Z,0
2016-09-29T03:08:52.470Z,0
2016-09-29T03:09:52.498Z,0
2016-09-29T03:10:37.594Z,0
2016-09-29T03:11:37.623Z,0
2016-09-29T03:12:37.645Z,0
2016-09-29T03:13:37.671Z,0
2016-09-29T03:14:37.714Z,0
2016-09-29T03:15:37.728Z,0
2016-09-29T03:16:37.751Z,0
2016-09-29T03:17:52.698Z,0
2016-09-29T03:18:37.842Z,0
2016-09-29T03:21:52.791Z,0
2016-09-29T03:22:37.891Z,0
2016-09-29T03:23:37.922Z,0
2016-09-29T03:24:37.942Z,0
2016-09-29T03:25:37.965Z,0
2016-09-29T03:26:37.993Z,0
2016-09-29T03:27:38.016Z,0
2016-09-29T03:28:38.037Z,0
2016-09-29T03:29:38.068Z,0
2016-09-29T03:30:38.343Z,0
2016-09-29T03:31:38.117Z,0
2016-09-29T03:32:38.144Z,0
2016-09-29T03:33:38.168Z,0
2016-09-29T03:34:53.119Z,0
2016-09-29T03:35:38.221Z,0
2016-09-29T03:36:53.462Z,0
2016-09-29T03:37:38.567Z,0
2016-09-29T03:38:38.294Z,0
2016-09-29T03:39:38.612Z,0
2016-09-29T03:40:38.642Z,0
2016-09-29T03:41:53.285Z,0
2016-09-29T03:42:38.640Z,0
2016-09-29T03:43:38.418Z,0
2016-09-29T03:44:38.435Z,0
2016-09-29T03:45:38.459Z,0
2016-09-29T03:46:38.478Z,0
2016-09-29T03:47:38.510Z,0
2016-09-29T03:48:38.534Z,0
2016-09-29T03:49:38.565Z,0
2016-09-29T03:50:38.596Z,0
2016-09-29T03:51:38.658Z,0
2016-09-29T03:52:38.929Z,0
2016-09-29T03:53:38.652Z,0
2016-09-29T03:54:38.682Z,0
2016-09-29T03:55:53.932Z,0
2016-09-29T03:56:38.732Z,0
2016-09-29T03:57:53.677Z,0
2016-09-29T03:58:38.780Z,0
2016-09-29T03:59:39.106Z,0
2016-09-29T04:00:38.831Z,0
2016-09-29T04:02:38.876Z,0
2016-09-29T04:03:38.906Z,0
2016-09-29T04:04:38.933Z,0
2016-09-29T04:05:38.953Z,0
2016-09-29T04:06:39.000Z,0
2016-09-29T04:07:39.003Z,0
2016-09-29T04:08:39.023Z,0
2016-09-29T04:09:53.974Z,0
2016-09-29T04:10:53.999Z,0
2016-09-29T04:11:39.096Z,0
2016-09-29T04:12:39.171Z,0
2016-09-29T04:13:54.372Z,0
2016-09-29T04:14:39.167Z,0
2016-09-29T04:15:39.503Z,0
2016-09-29T04:16:39.223Z,0
2016-09-29T04:17:54.468Z,0
2016-09-29T04:18:39.267Z,0
2016-09-29T04:19:39.295Z,0
2016-09-29T04:20:39.316Z,0
2016-09-29T04:21:39.345Z,0
2016-09-29T04:22:39.382Z,0
2016-09-29T04:23:39.398Z,0
2016-09-29T04:24:39.419Z,0
2016-09-29T04:25:54.370Z,0
2016-09-29T04:26:39.475Z,0
2016-09-29T04:27:39.490Z,0
2016-09-29T04:28:39.565Z,4
2016-09-29T04:29:54.463Z,4
2016-09-29T04:30:54.484Z,4
2016-09-29T04:31:39.595Z,4
2016-09-29T04:32:39.612Z,4
2016-09-29T04:33:39.942Z,4
2016-09-29T04:34:39.674Z,4
2016-09-29T04:35:39.683Z,0
2016-09-29T04:37:39.738Z,4
2016-09-29T04:38:39.766Z,0
2016-09-29T04:40:39.812Z,4
2016-09-29T04:41:40.137Z,4
2016-09-29T04:42:39.865Z,8
2016-09-29T04:43:39.885Z,8
2016-09-29T04:44:54.836Z,12
2016-09-29T04:45:54.854Z,16
2016-09-29T04:46:39.964Z,16
2016-09-29T04:47:39.978Z,20
2016-09-29T04:48:40.309Z,24
2016-09-29T04:50:40.058Z,44
2016-09-29T04:51:40.074Z,60
2016-09-29T04:52:40.107Z,72
2016-09-29T04:53:40.184Z,76
2016-09-29T04:54:40.148Z,60
2016-09-29T04:56:40.202Z,40
2016-09-29T04:57:40.227Z,36
2016-09-29T04:58:40.259Z,36
2016-09-29T04:59:40.275Z,40
2016-09-29T05:00:55.222Z,44
2016-09-29T05:02:40.350Z,44
2016-09-29T05:04:40.700Z,52
2016-09-29T05:05:40.428Z,60
2016-09-29T05:06:40.456Z,68
2016-09-29T05:07:40.477Z,72
2016-09-29T05:08:40.813Z,84
2016-09-29T05:09:40.527Z,88
2016-09-29T05:10:40.550Z,92
2016-09-29T05:11:40.577Z,96
2016-09-29T05:12:55.518Z,104
2016-09-29T05:13:40.620Z,108
2016-09-29T05:14:40.642Z,120
2016-09-29T05:15:40.666Z,120
2016-09-29T05:16:55.613Z,128
2016-09-29T05:17:40.772Z,132
2016-09-29T05:18:40.749Z,148
2016-09-29T05:19:40.765Z,172
2016-09-29T05:20:40.795Z,208
2016-09-29T05:21:40.821Z,236
2016-09-29T05:22:40.842Z,252
2016-09-29T05:23:40.867Z,260
2016-09-29T05:25:40.918Z,272
2016-09-29T05:26:40.945Z,276
2016-09-29T05:27:40.969Z,268
2016-09-29T05:28:40.993Z,268
2016-09-29T05:29:55.939Z,284
2016-09-29T05:30:41.041Z,300
2016-09-29T05:31:41.059Z,320
2016-09-29T05:32:56.014Z,340
2016-09-29T05:33:41.113Z,364
2016-09-29T05:34:41.131Z,404
2016-09-29T05:36:41.184Z,428
2016-09-29T05:37:41.210Z,412
2016-09-29T05:38:41.233Z,392
2016-09-29T05:39:41.254Z,412
2016-09-29T05:40:41.483Z,420
2016-09-29T05:41:41.310Z,444
2016-09-29T05:42:41.336Z,516
2016-09-29T05:43:41.362Z,608
2016-09-29T05:44:41.380Z,772
2016-09-29T05:45:56.333Z,892
2016-09-29T05:46:41.449Z,968
2016-09-29T05:47:41.455Z,968
2016-09-29T05:48:56.400Z,976
2016-09-29T05:49:56.677Z,1024
2016-09-29T05:50:41.530Z,1076
2016-09-29T05:51:41.557Z,1080
2016-09-29T05:52:41.567Z,996
2016-09-29T05:53:41.606Z,932
2016-09-29T05:54:41.631Z,912
2016-09-29T05:55:41.652Z,960
2016-09-29T05:56:41.676Z,984
2016-09-29T05:57:41.710Z,992
2016-09-29T05:58:41.731Z,944
2016-09-29T05:59:41.754Z,884
2016-09-29T06:00:56.707Z,844
2016-09-29T06:01:41.805Z,824
2016-09-29T06:02:41.831Z,828
2016-09-29T06:03:41.898Z,880
2016-09-29T06:04:56.849Z,944
2016-09-29T06:05:56.821Z,960
2016-09-29T06:06:41.939Z,1016
2016-09-29T06:07:41.958Z,1112
2016-09-29T06:08:42.385Z,1148
2016-09-29T06:09:41.993Z,1240
2016-09-29T06:10:42.024Z,1380
2016-09-29T06:11:42.044Z,1616
2016-09-29T06:12:42.075Z,1772
2016-09-29T06:13:42.098Z,1972
2016-09-29T06:14:42.121Z,2068
2016-09-29T06:15:42.152Z,2164
2016-09-29T06:16:57.099Z,2352
2016-09-29T06:17:42.240Z,2468
2016-09-29T06:18:57.151Z,2544
2016-09-29T06:19:57.168Z,2616
2016-09-29T06:20:42.290Z,2716
2016-09-29T06:21:42.651Z,2820
2016-09-29T06:22:42.321Z,2772
2016-09-29T06:23:42.341Z,2532
2016-09-29T06:24:42.376Z,2352
2016-09-29T06:25:42.400Z,2828
2016-09-29T06:26:42.690Z,3312
2016-09-29T06:27:42.452Z,3036
2016-09-29T06:28:42.475Z,3644
2016-09-29T06:29:42.802Z,4444
2016-09-29T06:30:42.520Z,4824
2016-09-29T06:31:57.470Z,5420
2016-09-29T06:32:57.500Z,5900
2016-09-29T06:33:42.595Z,6140
2016-09-29T06:34:42.622Z,6440
2016-09-29T06:35:57.567Z,7856
2016-09-29T06:36:42.674Z,10292
2016-09-29T06:37:42.996Z,9796
2016-09-29T06:38:42.720Z,10740
2016-09-29T06:39:42.750Z,6532
2016-09-29T06:40:42.770Z,3252
2016-09-29T06:41:42.801Z,2680
2016-09-29T06:42:42.825Z,2668
2016-09-29T06:44:43.129Z,2952
2016-09-29T06:45:42.900Z,3156
2016-09-29T06:46:42.919Z,3368
2016-09-29T06:47:42.954Z,3492
2016-09-29T06:48:42.972Z,3644
2016-09-29T06:50:43.023Z,3396
2016-09-29T06:51:57.971Z,3300
2016-09-29T06:52:43.345Z,3016
2016-09-29T06:53:43.107Z,2636
2016-09-29T06:54:43.129Z,2276
2016-09-29T06:55:43.152Z,2104
2016-09-29T06:57:43.513Z,2140
2016-09-29T06:58:58.158Z,2132
2016-09-29T06:59:43.248Z,2156
2016-09-29T07:00:43.278Z,2160
2016-09-29T07:01:43.300Z,2096
2016-09-29T07:02:58.254Z,2112
2016-09-29T07:03:43.360Z,2216
2016-09-29T07:04:43.398Z,2492
2016-09-29T07:05:43.403Z,2864
2016-09-29T07:06:43.437Z,3172
2016-09-29T07:07:58.696Z,3572
2016-09-29T07:08:43.482Z,3788
2016-09-29T07:09:43.510Z,3984
2016-09-29T07:10:43.528Z,4092
2016-09-29T07:11:43.563Z,4112
2016-09-29T07:12:43.580Z,4096
2016-09-29T07:14:58.564Z,4084
2016-09-29T07:15:43.655Z,4108
2016-09-29T07:16:43.684Z,4140
2016-09-29T07:17:43.709Z,4156
2016-09-29T07:18:43.732Z,4156
2016-09-29T07:19:43.761Z,4164
2016-09-29T07:20:43.789Z,4152
2016-09-29T07:21:43.804Z,4112
2016-09-29T07:22:43.835Z,4096
2016-09-29T07:23:58.780Z,4048
2016-09-29T07:24:58.818Z,4000
2016-09-29T07:25:43.917Z,3984
2016-09-29T07:26:44.238Z,3980
2016-09-29T07:27:43.962Z,3976
2016-09-29T07:28:43.989Z,3956
2016-09-29T07:29:44.017Z,3904
2016-09-29T07:30:44.051Z,4028
2016-09-29T07:31:44.071Z,4164
2016-09-29T07:32:44.082Z,4304
2016-09-29T07:33:44.122Z,4432
2016-09-29T07:34:44.144Z,4456
2016-09-29T07:35:44.164Z,4632
2016-09-29T07:36:59.116Z,4944
2016-09-29T07:37:44.225Z,5080
2016-09-29T07:38:59.165Z,5736
2016-09-29T07:39:59.195Z,6808
2016-09-29T07:40:44.296Z,7480
2016-09-29T07:41:44.324Z,7204
2016-09-29T07:42:44.360Z,8672
2016-09-29T07:43:44.369Z,12332
2016-09-29T07:44:44.400Z,14456
2016-09-29T07:46:44.450Z,12128
2016-09-29T07:47:44.480Z,16640
2016-09-29T07:48:44.503Z,15260
2016-09-29T07:49:44.521Z,17696
2016-09-29T07:50:44.550Z,17696
2016-09-29T07:51:44.574Z,12588
2016-09-29T07:52:59.531Z,14556
2016-09-29T07:53:44.634Z,16416
2016-09-29T07:55:44.678Z,12640
2016-09-29T07:56:44.708Z,11548
2016-09-29T07:57:44.748Z,11456
2016-09-29T07:58:45.015Z,11424
2016-09-29T07:59:44.795Z,11388
2016-09-29T08:00:44.817Z,10952
2016-09-29T08:01:44.843Z,10856
2016-09-29T08:02:44.867Z,10668
2016-09-29T08:04:44.926Z,20960
2016-09-29T08:05:44.964Z,20896
2016-09-29T08:06:45.183Z,16320
2016-09-29T08:07:45.002Z,13584
2016-09-29T08:08:45.032Z,14580
2016-09-29T08:09:45.057Z,15280
2016-09-29T08:10:45.093Z,13432
2016-09-29T08:12:00.029Z,11732
2016-09-29T08:12:45.136Z,9256
2016-09-29T08:13:45.364Z,7772
2016-09-29T08:14:45.195Z,6604
2016-09-29T08:15:45.220Z,5884
2016-09-29T08:16:45.246Z,5708
2016-09-29T08:17:45.272Z,5788
2016-09-29T08:18:45.301Z,6320
2016-09-29T08:19:45.320Z,6952
2016-09-29T08:20:45.351Z,7400
2016-09-29T08:21:45.381Z,7836
2016-09-29T08:22:45.404Z,8580
2016-09-29T08:23:45.437Z,9352
2016-09-29T08:24:45.466Z,9296
2016-09-29T08:25:45.485Z,8784
2016-09-29T08:27:00.438Z,8292
2016-09-29T08:27:45.544Z,8072
2016-09-29T08:28:45.563Z,8380
2016-09-29T08:29:45.595Z,10564
2016-09-29T08:30:45.623Z,9096
2016-09-29T08:32:45.676Z,9852
2016-09-29T08:33:45.701Z,9844
2016-09-29T08:34:45.730Z,10224
2016-09-29T08:35:45.757Z,13504
2016-09-29T08:36:45.794Z,15948
2016-09-29T08:37:45.813Z,16104
2016-09-29T08:38:45.841Z,13240
2016-09-29T08:40:00.792Z,13160
2016-09-29T08:40:45.920Z,13208
2016-09-29T08:42:00.844Z,13184
2016-09-29T08:43:00.875Z,12544
2016-09-29T08:43:45.980Z,13824
2016-09-29T08:44:46.008Z,12976
2016-09-29T08:45:46.035Z,14528
2016-09-29T08:46:46.063Z,20736
2016-09-29T08:47:46.088Z,22016
2016-09-29T08:48:46.120Z,20512
2016-09-29T08:49:46.132Z,19744
2016-09-29T08:50:46.173Z,14212
2016-09-29T08:52:01.126Z,14856
2016-09-29T08:52:46.231Z,15964
2016-09-29T08:53:46.565Z,15432
2016-09-29T08:54:46.280Z,13564
2016-09-29T08:56:01.248Z,16960
2016-09-29T08:56:46.343Z,13972
2016-09-29T08:57:46.563Z,15456
2016-09-29T08:59:01.326Z,13436
2016-09-29T08:59:46.627Z,14760
2016-09-29T09:00:46.445Z,16928
2016-09-29T09:01:46.484Z,15640
2016-09-29T09:02:46.510Z,18976
2016-09-29T09:03:46.538Z,15064
2016-09-29T09:04:46.572Z,14028
2016-09-29T09:05:46.592Z,13992
2016-09-29T09:06:46.628Z,14232
2016-09-29T09:08:01.586Z,13600
2016-09-29T09:08:46.882Z,13064
2016-09-29T09:09:46.726Z,15084
2016-09-29T09:11:01.669Z,22656
2016-09-29T09:11:46.779Z,23136
2016-09-29T09:12:46.804Z,21216
2016-09-29T09:15:01.797Z,12912
2016-09-29T09:15:46.893Z,12844
2016-09-29T09:16:46.918Z,15980
2016-09-29T09:17:46.945Z,21984
2016-09-29T09:18:46.976Z,20864
2016-09-29T09:19:47.008Z,17568
2016-09-29T09:20:47.030Z,15128
2016-09-29T09:21:47.061Z,12976
2016-09-29T09:22:47.095Z,15028
2016-09-29T09:23:47.121Z,13568
2016-09-29T09:24:47.153Z,13464
2016-09-29T09:25:47.183Z,14108
2016-09-29T09:26:47.213Z,13288
2016-09-29T09:27:47.249Z,13420
2016-09-29T09:28:47.573Z,14392
2016-09-29T09:30:02.229Z,10248
2016-09-29T09:30:47.341Z,9212
2016-09-29T09:31:47.666Z,8896
2016-09-29T09:32:47.634Z,9752
2016-09-29T09:33:47.429Z,8872
2016-09-29T09:34:47.660Z,9968
2016-09-29T09:35:47.474Z,9668
2016-09-29T09:36:47.519Z,11828
2016-09-29T09:37:47.549Z,11648
2016-09-29T09:38:47.573Z,11708
2016-09-29T09:39:47.604Z,12216
2016-09-29T09:40:47.627Z,16148
2016-09-29T09:41:47.658Z,18400
2016-09-29T09:42:47.696Z,19424
2016-09-29T09:44:02.642Z,14632
2016-09-29T09:44:47.751Z,11712
2016-09-29T09:45:47.777Z,10704
2016-09-29T09:46:47.810Z,10396
2016-09-29T09:47:47.848Z,10940
2016-09-29T09:48:47.965Z,9928
2016-09-29T09:49:47.892Z,14376
2016-09-29T09:50:47.924Z,15264
2016-09-29T09:51:47.952Z,15600
2016-09-29T09:52:47.989Z,14296
2016-09-29T09:53:48.026Z,12872
2016-09-29T09:54:48.051Z,12840
2016-09-29T09:55:48.075Z,11744
2016-09-29T09:57:03.033Z,11284
2016-09-29T09:57:48.134Z,11536
2016-09-29T09:59:03.102Z,11976
2016-09-29T09:59:48.191Z,12276
2016-09-29T10:00:48.225Z,13252
2016-09-29T10:02:03.178Z,15264
2016-09-29T10:02:48.288Z,15784
2016-09-29T10:03:48.318Z,14024
2016-09-29T10:04:48.348Z,15332
2016-09-29T10:06:03.314Z,16064
2016-09-29T10:06:48.411Z,15576
2016-09-29T10:07:48.442Z,12892
2016-09-29T10:08:48.485Z,14648
2016-09-29T10:10:48.539Z,15272
2016-09-29T10:12:03.487Z,15872
2016-09-29T10:12:48.586Z,16184
2016-09-29T10:14:03.544Z,16556
2016-09-29T10:16:48.710Z,16592
2016-09-29T10:18:03.967Z,16132
2016-09-29T10:18:48.772Z,15792
2016-09-29T10:19:48.803Z,15380
2016-09-29T10:20:48.825Z,15056
2016-09-29T10:21:48.863Z,14828
2016-09-29T10:22:48.892Z,14544
2016-09-29T10:23:48.923Z,13864
2016-09-29T10:24:48.951Z,13168
2016-09-29T10:25:48.988Z,12500
2016-09-29T10:26:49.017Z,11756
2016-09-29T10:28:03.971Z,11048
2016-09-29T10:28:49.069Z,10576
2016-09-29T10:30:04.033Z,9728
2016-09-29T10:30:49.143Z,9468
2016-09-29T10:32:04.088Z,8864
2016-09-29T10:32:49.195Z,8636
2016-09-29T10:34:04.151Z,8144
2016-09-29T10:34:49.254Z,7808
2016-09-29T10:36:49.320Z,7040
2016-09-29T10:37:49.347Z,6716
2016-09-29T10:38:49.385Z,6276
2016-09-29T10:39:49.404Z,6200
2016-09-29T10:40:49.434Z,6184
2016-09-29T10:41:49.483Z,6012
2016-09-29T10:42:49.496Z,5880
2016-09-29T10:43:49.523Z,5772
2016-09-29T10:44:49.552Z,5692
2016-09-29T10:45:49.582Z,5600
2016-09-29T10:46:49.618Z,5520
2016-09-29T10:47:49.634Z,5452
2016-09-29T10:48:49.666Z,5368
2016-09-29T10:50:49.723Z,5156
2016-09-29T10:51:49.761Z,5120
2016-09-29T10:52:49.786Z,5012
2016-09-29T10:53:49.823Z,4912
2016-09-29T10:55:49.870Z,4852
2016-09-29T10:56:49.908Z,4732
2016-09-29T10:57:49.935Z,4336
2016-09-29T10:58:49.963Z,4520
2016-09-29T11:00:50.016Z,4756
2016-09-29T11:01:50.052Z,4788
2016-09-29T11:02:50.078Z,5220
2016-09-29T11:03:50.108Z,5540
2016-09-29T11:05:50.167Z,6300
2016-09-29T11:06:50.190Z,6872
2016-09-29T11:07:50.226Z,7152
2016-09-29T11:08:50.256Z,6508
2016-09-29T11:09:50.287Z,7092
2016-09-29T11:10:50.312Z,7012
2016-09-29T11:11:50.590Z,7444
2016-09-29T11:12:50.367Z,7444
2016-09-29T11:13:50.600Z,7388
2016-09-29T11:15:50.473Z,7288
2016-09-29T11:16:50.486Z,7012
2016-09-29T11:17:50.516Z,6944
2016-09-29T11:18:50.550Z,7016
2016-09-29T11:20:05.492Z,6920
2016-09-29T11:20:50.596Z,6712
2016-09-29T11:21:50.635Z,6608
2016-09-29T11:22:50.664Z,6532
2016-09-29T11:23:50.687Z,6300
2016-09-29T11:24:50.716Z,6252
2016-09-29T11:25:50.745Z,5968
2016-09-29T11:27:50.807Z,5424
2016-09-29T11:28:50.830Z,5748
2016-09-29T11:29:50.859Z,5680
2016-09-29T11:30:50.890Z,5632
2016-09-29T11:31:50.924Z,5588
2016-09-29T11:32:50.948Z,5488
2016-09-29T11:34:51.010Z,5424
2016-09-29T11:35:51.033Z,5408
2016-09-29T11:37:05.997Z,5244
2016-09-29T11:38:06.014Z,5316
2016-09-29T11:38:51.123Z,5272
2016-09-29T11:39:51.154Z,5240
2016-09-29T11:40:51.176Z,5248
2016-09-29T11:41:51.207Z,5224
2016-09-29T11:42:51.240Z,5180
2016-09-29T11:43:51.264Z,5128
2016-09-29T11:44:51.302Z,5068
2016-09-29T11:45:51.328Z,5104
2016-09-29T11:46:51.364Z,5168
2016-09-29T11:47:51.381Z,5148
2016-09-29T11:48:51.405Z,5172
2016-09-29T11:49:51.440Z,5140
2016-09-29T11:50:51.471Z,5080
2016-09-29T11:52:06.424Z,4880
2016-09-29T11:53:06.453Z,4740
2016-09-29T11:53:51.563Z,4408
2016-09-29T11:55:51.615Z,5224
2016-09-29T11:56:51.641Z,5244
2016-09-29T11:57:51.685Z,5292
2016-09-29T11:58:51.703Z,5308
2016-09-29T11:59:51.735Z,5340
2016-09-29T12:00:51.757Z,5360
2016-09-29T12:01:51.794Z,5368
2016-09-29T12:03:06.751Z,5348
2016-09-29T12:03:51.842Z,5320
2016-09-29T12:04:51.873Z,5244
2016-09-29T12:05:51.900Z,5112
2016-09-29T12:06:51.932Z,5348
2016-09-29T12:07:52.019Z,4920
2016-09-29T12:09:06.912Z,4192
2016-09-29T12:11:52.077Z,5048
2016-09-29T12:12:52.110Z,5316
2016-09-29T12:13:52.133Z,5228
2016-09-29T12:15:52.254Z,5860
2016-09-29T12:16:52.220Z,5988
2016-09-29T12:17:52.250Z,6036
2016-09-29T12:18:52.282Z,6096
2016-09-29T12:19:52.319Z,5976
2016-09-29T12:20:53.134Z,6504
2016-09-29T12:21:52.363Z,6652
2016-09-29T12:22:52.397Z,6724
2016-09-29T12:23:52.419Z,6512
2016-09-29T12:25:08.377Z,5948
2016-09-29T12:25:52.480Z,5276
2016-09-29T12:26:52.510Z,6548
2016-09-29T12:27:52.540Z,6072
2016-09-29T12:28:52.762Z,6348
2016-09-29T12:30:52.624Z,6348
2016-09-29T12:31:52.656Z,6340
2016-09-29T12:32:52.678Z,6160
2016-09-29T12:33:53.022Z,6568
2016-09-29T12:34:52.741Z,6344
2016-09-29T12:35:52.770Z,6284
2016-09-29T12:37:07.724Z,6312
2016-09-29T12:37:52.824Z,6416
2016-09-29T12:38:52.869Z,6612
2016-09-29T12:40:07.813Z,6180
2016-09-29T12:40:52.919Z,6040
2016-09-29T12:41:53.640Z,6008
2016-09-29T12:42:52.974Z,5648
2016-09-29T12:43:53.009Z,5824
2016-09-29T12:44:53.387Z,5800
2016-09-29T12:45:53.062Z,5940
2016-09-29T12:46:53.139Z,5724
2016-09-29T12:47:53.116Z,5912
2016-09-29T12:48:53.151Z,6012
2016-09-29T12:49:53.182Z,5060
2016-09-29T12:50:53.209Z,5668
2016-09-29T12:52:08.162Z,4712
2016-09-29T12:52:53.264Z,4576
2016-09-29T12:53:53.289Z,4520
2016-09-29T12:55:08.248Z,4616
2016-09-29T12:56:08.275Z,4964
2016-09-29T12:56:53.383Z,5284
2016-09-29T12:57:53.672Z,5796
2016-09-29T12:58:53.443Z,6160
2016-09-29T12:59:53.471Z,5604
2016-09-29T13:00:53.492Z,6128
2016-09-29T13:01:53.535Z,6672
2016-09-29T13:02:53.553Z,6776
2016-09-29T13:03:53.580Z,5920
2016-09-29T13:04:53.614Z,6620
2016-09-29T13:05:53.635Z,7180
2016-09-29T13:06:53.668Z,7596
2016-09-29T13:07:53.703Z,7460
2016-09-29T13:08:53.733Z,6692
2016-09-29T13:09:53.756Z,6564
2016-09-29T13:10:53.786Z,6284
2016-09-29T13:12:08.734Z,6364
2016-09-29T13:12:53.841Z,6720
2016-09-29T13:14:08.792Z,6784
2016-09-29T13:14:53.893Z,7396
2016-09-29T13:15:53.922Z,6964
2016-09-29T13:16:53.965Z,6708
2016-09-29T13:17:53.989Z,7456
2016-09-29T13:19:08.946Z,6692
2016-09-29T13:19:54.046Z,7612
2016-09-29T13:20:54.080Z,7608
2016-09-29T13:22:54.139Z,7540
2016-09-29T13:23:54.157Z,8340
2016-09-29T13:25:09.113Z,7420
2016-09-29T13:25:54.216Z,6288
2016-09-29T13:26:54.246Z,6208
2016-09-29T13:28:09.208Z,7320
2016-09-29T13:29:09.232Z,7104
2016-09-29T13:29:54.344Z,7020
2016-09-29T13:30:54.373Z,6464
2016-09-29T13:31:54.403Z,7508
2016-09-29T13:32:54.429Z,6580
2016-09-29T13:33:54.449Z,6420
2016-09-29T13:34:54.498Z,6092
2016-09-29T13:35:54.511Z,5064
2016-09-29T13:36:54.543Z,5000
2016-09-29T13:37:54.573Z,5628
2016-09-29T13:38:54.598Z,5764
2016-09-29T13:39:54.622Z,5376
2016-09-29T13:41:09.599Z,5644
2016-09-29T13:42:09.609Z,5336
2016-09-29T13:43:09.636Z,5320
2016-09-29T13:44:55.019Z,5628
2016-09-29T13:45:54.810Z,6080
2016-09-29T13:47:54.862Z,6540
2016-09-29T13:48:54.888Z,5872
2016-09-29T13:49:54.914Z,5724
2016-09-29T13:50:54.948Z,5132
2016-09-29T13:51:54.977Z,5376
2016-09-29T13:54:55.068Z,5936
2016-09-29T13:56:10.015Z,6864
2016-09-29T13:57:10.047Z,6496
2016-09-29T14:00:10.139Z,4824
2016-09-29T14:00:55.242Z,4728
2016-09-29T14:01:55.265Z,5060
2016-09-29T14:02:55.297Z,4636
2016-09-29T14:03:55.584Z,5520
2016-09-29T14:05:55.693Z,4476
2016-09-29T14:06:55.410Z,4792
2016-09-29T14:07:55.447Z,4356
2016-09-29T14:08:55.469Z,5708
2016-09-29T14:09:55.797Z,5208
2016-09-29T14:10:55.533Z,4424
2016-09-29T14:11:55.556Z,4908
2016-09-29T14:12:55.586Z,4176
2016-09-29T14:14:10.542Z,4340
2016-09-29T14:15:10.571Z,4728
2016-09-29T14:15:55.682Z,5148
2016-09-29T14:16:55.705Z,4424
2016-09-29T14:17:55.736Z,4536
2016-09-29T14:18:55.763Z,5148
2016-09-29T14:19:55.783Z,6716
2016-09-29T14:21:55.865Z,4508
2016-09-29T14:23:10.806Z,4376
2016-09-29T14:24:10.834Z,4748
2016-09-29T14:24:55.935Z,5292
2016-09-29T14:25:55.968Z,4568
2016-09-29T14:27:56.022Z,3616
2016-09-29T14:28:56.058Z,3532
2016-09-29T14:29:56.082Z,5464
2016-09-29T14:32:11.064Z,3960
2016-09-29T14:32:56.167Z,4060
2016-09-29T14:33:56.200Z,3836
2016-09-29T14:35:56.251Z,3860
2016-09-29T14:36:56.583Z,4724
2016-09-29T14:37:56.319Z,5420
2016-09-29T14:38:56.335Z,4404
2016-09-29T14:39:56.368Z,4044
2016-09-29T14:40:56.398Z,5064
2016-09-29T14:41:56.431Z,4756
2016-09-29T14:42:56.760Z,3876
2016-09-29T14:43:56.730Z,4124
2016-09-29T14:44:56.521Z,3800
2016-09-29T14:45:56.542Z,3468
2016-09-29T14:47:11.495Z,3416
2016-09-29T14:47:56.604Z,3452